La Sarre, Canada
Current Conditions -  °F | °C
As of 12:00 AM on Sunday 26 Oct 2014 (Local Time) from CYUY Reporting Station
Light Rain Light Rain  
Wind Chill: 34°   Ceiling: 1400
Heat Index: 39°   Visibility: 15mi
Dew Point: 37°   Wind: 7mph
Humidity: 93%   Direction: 270°W
Pressure: 29.4"   Gusts: NA
Location:  48.8°N, 79.2°W
Report Text: CYUY 260400Z 27006KT 15SM -RA OVC014 04/03 A2940 RMK SC8 CIG RAG SLP966
Loading
Personal Weather Stations






























Interactive Weather Map
Tropical Storm Tracking
New forecast layout! Learn more

10-Day Weather Forecast

Advertisements
Track Severe Weather on mobile